sensor_id;sensor_type;location;lat;lon;timestamp;pressure;altitude;pressure_sealevel;temperature
53412;BMP280;39307;52.870;13.660;2023-07-09T00:00:49;101482.44;;;17.33
53412;BMP280;39307;52.870;13.660;2023-07-09T00:03:17;101483.47;;;17.33
53412;BMP280;39307;52.870;13.660;2023-07-09T00:05:47;101482.28;;;17.29
53412;BMP280;39307;52.870;13.660;2023-07-09T00:08:28;101476.16;;;17.22
53412;BMP280;39307;52.870;13.660;2023-07-09T00:10:55;101470.47;;;17.18
53412;BMP280;39307;52.870;13.660;2023-07-09T00:13:23;101479.25;;;17.12
53412;BMP280;39307;52.870;13.660;2023-07-09T00:15:50;101478.44;;;17.05
53412;BMP280;39307;52.870;13.660;2023-07-09T00:18:16;101475.38;;;17.02
53412;BMP280;39307;52.870;13.660;2023-07-09T00:20:43;101478.22;;;17.01
53412;BMP280;39307;52.870;13.660;2023-07-09T00:23:12;101480.84;;;17.01
53412;BMP280;39307;52.870;13.660;2023-07-09T00:25:41;101474.34;;;17.03
53412;BMP280;39307;52.870;13.660;2023-07-09T00:28:13;101478.22;;;17.01
53412;BMP280;39307;52.870;13.660;2023-07-09T00:30:39;101483.31;;;17.02
53412;BMP280;39307;52.870;13.660;2023-07-09T00:33:16;101482.53;;;16.89
53412;BMP280;39307;52.870;13.660;2023-07-09T00:35:43;101487.22;;;16.80
53412;BMP280;39307;52.870;13.660;2023-07-09T00:38:19;101479.69;;;16.71
53412;BMP280;39307;52.870;13.660;2023-07-09T00:41:10;101481.94;;;16.68
53412;BMP280;39307;52.870;13.660;2023-07-09T00:43:38;101472.75;;;16.64
53412;BMP280;39307;52.870;13.660;2023-07-09T00:49:09;101474.59;;;16.57
53412;BMP280;39307;52.870;13.660;2023-07-09T00:51:43;101478.84;;;16.51
53412;BMP280;39307;52.870;13.660;2023-07-09T00:54:31;101474.78;;;16.49
53412;BMP280;39307;52.870;13.660;2023-07-09T00:57:08;101479.06;;;16.50
53412;BMP280;39307;52.870;13.660;2023-07-09T00:59:36;101471.75;;;16.52
53412;BMP280;39307;52.870;13.660;2023-07-09T01:02:04;101473.38;;;16.53
53412;BMP280;39307;52.870;13.660;2023-07-09T01:04:30;101466.84;;;16.49
53412;BMP280;39307;52.870;13.660;2023-07-09T01:06:57;101467.47;;;16.45
53412;BMP280;39307;52.870;13.660;2023-07-09T01:09:24;101463.19;;;16.37
53412;BMP280;39307;52.870;13.660;2023-07-09T01:11:51;101465.25;;;16.29
53412;BMP280;39307;52.870;13.660;2023-07-09T01:14:20;101468.06;;;16.21
53412;BMP280;39307;52.870;13.660;2023-07-09T01:16:52;101472.72;;;16.13
53412;BMP280;39307;52.870;13.660;2023-07-09T01:19:24;101479.00;;;16.12
53412;BMP280;39307;52.870;13.660;2023-07-09T01:21:53;101469.63;;;16.09
53412;BMP280;39307;52.870;13.660;2023-07-09T01:27:28;101466.16;;;16.02
53412;BMP280;39307;52.870;13.660;2023-07-09T01:29:56;101468.00;;;16.02
53412;BMP280;39307;52.870;13.660;2023-07-09T01:32:23;101478.97;;;15.99
53412;BMP280;39307;52.870;13.660;2023-07-09T01:34:53;101480.38;;;15.95
53412;BMP280;39307;52.870;13.660;2023-07-09T01:37:30;101474.88;;;15.90
53412;BMP280;39307;52.870;13.660;2023-07-09T01:39:57;101486.84;;;15.86
53412;BMP280;39307;52.870;13.660;2023-07-09T01:42:25;101484.78;;;15.82
53412;BMP280;39307;52.870;13.660;2023-07-09T01:44:53;101481.13;;;15.83
53412;BMP280;39307;52.870;13.660;2023-07-09T01:47:19;101480.94;;;15.84
53412;BMP280;39307;52.870;13.660;2023-07-09T01:49:46;101494.53;;;15.81
53412;BMP280;39307;52.870;13.660;2023-07-09T01:52:14;101497.81;;;15.83
53412;BMP280;39307;52.870;13.660;2023-07-09T01:54:40;101496.56;;;15.79
53412;BMP280;39307;52.870;13.660;2023-07-09T01:57:16;101496.56;;;15.79
53412;BMP280;39307;52.870;13.660;2023-07-09T01:59:42;101487.22;;;15.77
53412;BMP280;39307;52.870;13.660;2023-07-09T02:02:08;101489.03;;;15.76
53412;BMP280;39307;52.870;13.660;2023-07-09T02:04:35;101483.72;;;15.70
53412;BMP280;39307;52.870;13.660;2023-07-09T02:07:01;101482.09;;;15.62
53412;BMP280;39307;52.870;13.660;2023-07-09T02:09:27;101486.56;;;15.62
53412;BMP280;39307;52.870;13.660;2023-07-09T02:11:53;101495.03;;;15.58
53412;BMP280;39307;52.870;13.660;2023-07-09T02:14:19;101497.47;;;15.53
53412;BMP280;39307;52.870;13.660;2023-07-09T02:16:46;101505.56;;;15.51
53412;BMP280;39307;52.870;13.660;2023-07-09T02:19:12;101504.75;;;15.44
53412;BMP280;39307;52.870;13.660;2023-07-09T02:21:38;101509.75;;;15.33
53412;BMP280;39307;52.870;13.660;2023-07-09T02:24:04;101507.09;;;15.33
53412;BMP280;39307;52.870;13.660;2023-07-09T02:26:31;101516.84;;;15.32
53412;BMP280;39307;52.870;13.660;2023-07-09T02:28:57;101513.56;;;15.30
53412;BMP280;39307;52.870;13.660;2023-07-09T02:31:23;101511.56;;;15.32
53412;BMP280;39307;52.870;13.660;2023-07-09T02:33:49;101503.03;;;15.30
53412;BMP280;39307;52.870;13.660;2023-07-09T02:36:16;101512.56;;;15.25
53412;BMP280;39307;52.870;13.660;2023-07-09T02:38:42;101507.66;;;15.22
53412;BMP280;39307;52.870;13.660;2023-07-09T02:41:08;101513.13;;;15.21
53412;BMP280;39307;52.870;13.660;2023-07-09T02:43:35;101506.41;;;15.18
53412;BMP280;39307;52.870;13.660;2023-07-09T02:46:01;101501.34;;;15.17
53412;BMP280;39307;52.870;13.660;2023-07-09T02:48:27;101510.81;;;15.11
53412;BMP280;39307;52.870;13.660;2023-07-09T02:50:53;101516.09;;;15.11
53412;BMP280;39307;52.870;13.660;2023-07-09T02:53:19;101507.00;;;15.14
53412;BMP280;39307;52.870;13.660;2023-07-09T02:55:46;101517.34;;;15.15
53412;BMP280;39307;52.870;13.660;2023-07-09T02:58:12;101511.56;;;15.05
53412;BMP280;39307;52.870;13.660;2023-07-09T03:00:38;101508.28;;;15.03
53412;BMP280;39307;52.870;13.660;2023-07-09T03:03:04;101509.94;;;15.04
53412;BMP280;39307;52.870;13.660;2023-07-09T03:05:30;101516.03;;;15.05
53412;BMP280;39307;52.870;13.660;2023-07-09T03:07:57;101516.03;;;15.05
53412;BMP280;39307;52.870;13.660;2023-07-09T03:10:23;101517.59;;;15.00
53412;BMP280;39307;52.870;13.660;2023-07-09T03:12:49;101515.97;;;14.99
53412;BMP280;39307;52.870;13.660;2023-07-09T03:15:15;101523.91;;;14.99
53412;BMP280;39307;52.870;13.660;2023-07-09T03:17:42;101518.19;;;14.95
53412;BMP280;39307;52.870;13.660;2023-07-09T03:20:08;101517.19;;;14.96
53412;BMP280;39307;52.870;13.660;2023-07-09T03:22:34;101517.19;;;14.96
53412;BMP280;39307;52.870;13.660;2023-07-09T03:25:00;101518.56;;;14.92
53412;BMP280;39307;52.870;13.660;2023-07-09T03:27:27;101514.13;;;14.93
53412;BMP280;39307;52.870;13.660;2023-07-09T03:29:53;101519.19;;;14.94
53412;BMP280;39307;52.870;13.660;2023-07-09T03:32:19;101516.38;;;14.96
53412;BMP280;39307;52.870;13.660;2023-07-09T03:34:45;101520.63;;;14.97
53412;BMP280;39307;52.870;13.660;2023-07-09T03:37:11;101524.28;;;14.96
53412;BMP280;39307;52.870;13.660;2023-07-09T03:39:38;101519.44;;;14.99
53412;BMP280;39307;52.870;13.660;2023-07-09T03:42:04;101525.50;;;15.00
53412;BMP280;39307;52.870;13.660;2023-07-09T03:44:30;101523.69;;;15.00
53412;BMP280;39307;52.870;13.660;2023-07-09T03:46:56;101521.63;;;14.96
53412;BMP280;39307;52.870;13.660;2023-07-09T03:49:22;101512.28;;;14.93
53412;BMP280;39307;52.870;13.660;2023-07-09T03:51:49;101521.22;;;14.92
53412;BMP280;39307;52.870;13.660;2023-07-09T03:54:15;101516.53;;;14.94
53412;BMP280;39307;52.870;13.660;2023-07-09T03:56:41;101518.00;;;14.97
53412;BMP280;39307;52.870;13.660;2023-07-09T03:59:07;101515.59;;;15.01
53412;BMP280;39307;52.870;13.660;2023-07-09T04:01:33;101520.25;;;15.00
53412;BMP280;39307;52.870;13.660;2023-07-09T04:04:00;101516.75;;;14.93
53412;BMP280;39307;52.870;13.660;2023-07-09T04:06:26;101517.75;;;14.92
53412;BMP280;39307;52.870;13.660;2023-07-09T04:08:52;101523.47;;;14.95
53412;BMP280;39307;52.870;13.660;2023-07-09T04:11:18;101528.53;;;14.97
53412;BMP280;39307;52.870;13.660;2023-07-09T04:13:44;101520.63;;;14.97
53412;BMP280;39307;52.870;13.660;2023-07-09T04:16:11;101517.59;;;15.00
53412;BMP280;39307;52.870;13.660;2023-07-09T04:18:37;101519.03;;;15.02
53412;BMP280;39307;52.870;13.660;2023-07-09T04:21:03;101523.69;;;15.00
53412;BMP280;39307;52.870;13.660;2023-07-09T04:23:30;101520.88;;;15.01
53412;BMP280;39307;52.870;13.660;2023-07-09T04:25:56;101530.03;;;15.05
53412;BMP280;39307;52.870;13.660;2023-07-09T04:28:22;101529.66;;;15.08
53412;BMP280;39307;52.870;13.660;2023-07-09T04:30:50;101531.34;;;15.16
53412;BMP280;39307;52.870;13.660;2023-07-09T04:33:17;101531.78;;;15.19
53412;BMP280;39307;52.870;13.660;2023-07-09T04:35:45;101532.22;;;15.23
53412;BMP280;39307;52.870;13.660;2023-07-09T04:38:12;101530.38;;;15.23
53412;BMP280;39307;52.870;13.660;2023-07-09T04:40:38;101528.97;;;15.27
53412;BMP280;39307;52.870;13.660;2023-07-09T04:43:05;101537.53;;;15.29
53412;BMP280;39307;52.870;13.660;2023-07-09T04:45:31;101535.69;;;15.30
53412;BMP280;39307;52.870;13.660;2023-07-09T04:47:57;101538.75;;;15.33
53412;BMP280;39307;52.870;13.660;2023-07-09T04:50:23;101531.91;;;15.38
53412;BMP280;39307;52.870;13.660;2023-07-09T04:52:49;101534.78;;;15.43
53412;BMP280;39307;52.870;13.660;2023-07-09T04:55:16;101540.09;;;15.50
53412;BMP280;39307;52.870;13.660;2023-07-09T04:57:42;101539.72;;;15.53
53412;BMP280;39307;52.870;13.660;2023-07-09T05:00:08;101534.84;;;15.56
53412;BMP280;39307;52.870;13.660;2023-07-09T05:02:35;101534.88;;;15.62
53412;BMP280;39307;52.870;13.660;2023-07-09T05:05:00;101536.31;;;15.65
53412;BMP280;39307;52.870;13.660;2023-07-09T05:07:27;101531.06;;;15.71
53412;BMP280;39307;52.870;13.660;2023-07-09T05:09:53;101534.53;;;15.78
53412;BMP280;39307;52.870;13.660;2023-07-09T05:12:19;101540.06;;;15.83
53412;BMP280;39307;52.870;13.660;2023-07-09T05:14:45;101536.00;;;15.87
53412;BMP280;39307;52.870;13.660;2023-07-09T05:17:11;101530.56;;;15.95
53412;BMP280;39307;52.870;13.660;2023-07-09T05:19:38;101534.63;;;16.04
53412;BMP280;39307;52.870;13.660;2023-07-09T05:22:04;101539.78;;;16.12
53412;BMP280;39307;52.870;13.660;2023-07-09T05:24:31;101551.41;;;16.23
53412;BMP280;39307;52.870;13.660;2023-07-09T05:26:57;101530.50;;;16.28
53412;BMP280;39307;52.870;13.660;2023-07-09T05:29:24;101532.13;;;16.36
53412;BMP280;39307;52.870;13.660;2023-07-09T05:31:50;101545.16;;;16.50
53412;BMP280;39307;52.870;13.660;2023-07-09T05:34:16;101536.44;;;16.56
53412;BMP280;39307;52.870;13.660;2023-07-09T05:36:43;101538.84;;;16.64
53412;BMP280;39307;52.870;13.660;2023-07-09T05:39:09;101544.56;;;16.74
53412;BMP280;39307;52.870;13.660;2023-07-09T05:41:35;101537.47;;;16.80
53412;BMP280;39307;52.870;13.660;2023-07-09T05:44:01;101545.38;;;16.87
53412;BMP280;39307;52.870;13.660;2023-07-09T05:46:27;101538.47;;;16.92
53412;BMP280;39307;52.870;13.660;2023-07-09T05:48:53;101540.09;;;17.00
53412;BMP280;39307;52.870;13.660;2023-07-09T05:51:20;101540.31;;;17.04
53412;BMP280;39307;52.870;13.660;2023-07-09T05:53:46;101545.38;;;17.12
53412;BMP280;39307;52.870;13.660;2023-07-09T05:56:12;101545.19;;;17.20
53412;BMP280;39307;52.870;13.660;2023-07-09T05:58:38;101555.78;;;17.27
53412;BMP280;39307;52.870;13.660;2023-07-09T06:01:05;101545.16;;;17.39
53412;BMP280;39307;52.870;13.660;2023-07-09T06:03:32;101550.59;;;17.57
53412;BMP280;39307;52.870;13.660;2023-07-09T06:05:58;101539.81;;;17.65
53412;BMP280;39307;52.870;13.660;2023-07-09T06:08:24;101538.56;;;17.74
53412;BMP280;39307;52.870;13.660;2023-07-09T06:10:58;101537.50;;;17.81
53412;BMP280;39307;52.870;13.660;2023-07-09T06:13:24;101535.00;;;17.92
53412;BMP280;39307;52.870;13.660;2023-07-09T06:15:53;101539.84;;;18.08
53412;BMP280;39307;52.870;13.660;2023-07-09T06:18:21;101531.53;;;18.35
53412;BMP280;39307;52.870;13.660;2023-07-09T06:20:53;101542.44;;;18.51
53412;BMP280;39307;52.870;13.660;2023-07-09T06:23:20;101540.28;;;18.66
53412;BMP280;39307;52.870;13.660;2023-07-09T06:25:47;101535.13;;;18.78
53412;BMP280;39307;52.870;13.660;2023-07-09T06:28:17;101541.16;;;18.84
53412;BMP280;39307;52.870;13.660;2023-07-09T06:30:44;101544.03;;;18.89
53412;BMP280;39307;52.870;13.660;2023-07-09T06:33:12;101550.16;;;18.90
53412;BMP280;39307;52.870;13.660;2023-07-09T06:35:38;101547.44;;;18.96
53412;BMP280;39307;52.870;13.660;2023-07-09T06:38:06;101551.97;;;19.13
53412;BMP280;39307;52.870;13.660;2023-07-09T06:40:32;101553.31;;;19.22
53412;BMP280;39307;52.870;13.660;2023-07-09T06:42:58;101550.16;;;19.32
53412;BMP280;39307;52.870;13.660;2023-07-09T06:45:25;101554.38;;;19.39
53412;BMP280;39307;52.870;13.660;2023-07-09T06:47:51;101555.88;;;19.53
53412;BMP280;39307;52.870;13.660;2023-07-09T06:50:17;101552.69;;;19.62
53412;BMP280;39307;52.870;13.660;2023-07-09T06:52:43;101558.50;;;19.70
53412;BMP280;39307;52.870;13.660;2023-07-09T06:55:09;101548.72;;;19.89
53412;BMP280;39307;52.870;13.660;2023-07-09T06:57:36;101553.50;;;19.98
53412;BMP280;39307;52.870;13.660;2023-07-09T07:00:03;101549.94;;;20.04
53412;BMP280;39307;52.870;13.660;2023-07-09T07:02:29;101544.34;;;20.12
53412;BMP280;39307;52.870;13.660;2023-07-09T07:04:56;101543.78;;;20.21
53412;BMP280;39307;52.870;13.660;2023-07-09T07:07:21;101546.72;;;20.31
53412;BMP280;39307;52.870;13.660;2023-07-09T07:09:48;101543.06;;;20.43
53412;BMP280;39307;52.870;13.660;2023-07-09T07:12:25;101546.59;;;20.55
53412;BMP280;39307;52.870;13.660;2023-07-09T07:14:52;101537.94;;;20.59
53412;BMP280;39307;52.870;13.660;2023-07-09T07:17:18;101542.00;;;20.73
53412;BMP280;39307;52.870;13.660;2023-07-09T07:19:44;101538.69;;;21.00
53412;BMP280;39307;52.870;13.660;2023-07-09T07:22:11;101532.22;;;21.19
53412;BMP280;39307;52.870;13.660;2023-07-09T07:24:37;101542.41;;;21.22
53412;BMP280;39307;52.870;13.660;2023-07-09T07:27:03;101535.81;;;21.24
53412;BMP280;39307;52.870;13.660;2023-07-09T07:29:30;101543.34;;;21.27
53412;BMP280;39307;52.870;13.660;2023-07-09T07:31:56;101544.63;;;21.36
53412;BMP280;39307;52.870;13.660;2023-07-09T07:34:23;101543.69;;;21.53
53412;BMP280;39307;52.870;13.660;2023-07-09T07:36:49;101547.59;;;21.73
53412;BMP280;39307;52.870;13.660;2023-07-09T07:39:17;101543.97;;;21.91
53412;BMP280;39307;52.870;13.660;2023-07-09T07:41:43;101543.34;;;22.00
53412;BMP280;39307;52.870;13.660;2023-07-09T07:44:09;101529.06;;;22.17
53412;BMP280;39307;52.870;13.660;2023-07-09T07:46:35;101536.50;;;22.31
53412;BMP280;39307;52.870;13.660;2023-07-09T07:49:02;101527.97;;;22.46
53412;BMP280;39307;52.870;13.660;2023-07-09T07:51:28;101519.44;;;22.76
53412;BMP280;39307;52.870;13.660;2023-07-09T07:53:54;101519.31;;;22.99
53412;BMP280;39307;52.870;13.660;2023-07-09T07:56:22;101521.72;;;23.17
53412;BMP280;39307;52.870;13.660;2023-07-09T07:58:48;101519.41;;;23.41
53412;BMP280;39307;52.870;13.660;2023-07-09T08:01:15;101519.50;;;23.67
53412;BMP280;39307;52.870;13.660;2023-07-09T08:03:41;101512.66;;;23.97
53412;BMP280;39307;52.870;13.660;2023-07-09T08:06:07;101518.97;;;24.33
53412;BMP280;39307;52.870;13.660;2023-07-09T08:08:33;101508.78;;;24.62
53412;BMP280;39307;52.870;13.660;2023-07-09T08:11:01;101497.81;;;24.94
53412;BMP280;39307;52.870;13.660;2023-07-09T08:13:28;101501.53;;;25.29
53412;BMP280;39307;52.870;13.660;2023-07-09T08:15:54;101503.09;;;25.71
53412;BMP280;39307;52.870;13.660;2023-07-09T08:18:20;101498.16;;;26.13
53412;BMP280;39307;52.870;13.660;2023-07-09T08:20:46;101491.78;;;26.54
53412;BMP280;39307;52.870;13.660;2023-07-09T08:23:12;101496.38;;;26.78
53412;BMP280;39307;52.870;13.660;2023-07-09T08:25:39;101492.56;;;26.98
53412;BMP280;39307;52.870;13.660;2023-07-09T08:28:05;101494.94;;;27.34
53412;BMP280;39307;52.870;13.660;2023-07-09T08:30:31;101490.22;;;27.74
53412;BMP280;39307;52.870;13.660;2023-07-09T08:32:57;101497.41;;;27.98
53412;BMP280;39307;52.870;13.660;2023-07-09T08:35:23;101491.69;;;28.05
53412;BMP280;39307;52.870;13.660;2023-07-09T08:37:49;101485.00;;;28.40
53412;BMP280;39307;52.870;13.660;2023-07-09T08:40:17;101486.72;;;28.64
53412;BMP280;39307;52.870;13.660;2023-07-09T08:42:48;101481.88;;;28.94
53412;BMP280;39307;52.870;13.660;2023-07-09T08:48:02;101487.13;;;29.60
53412;BMP280;39307;52.870;13.660;2023-07-09T08:50:41;101484.84;;;29.90
53412;BMP280;39307;52.870;13.660;2023-07-09T08:53:25;101479.34;;;30.13
53412;BMP280;39307;52.870;13.660;2023-07-09T08:55:55;101482.22;;;30.40
53412;BMP280;39307;52.870;13.660;2023-07-09T08:58:29;101475.44;;;30.74
53412;BMP280;39307;52.870;13.660;2023-07-09T09:00:59;101470.63;;;31.02
53412;BMP280;39307;52.870;13.660;2023-07-09T09:03:42;101464.03;;;31.35
53412;BMP280;39307;52.870;13.660;2023-07-09T09:06:15;101458.09;;;31.59
53412;BMP280;39307;52.870;13.660;2023-07-09T09:08:53;101462.50;;;31.68
53412;BMP280;39307;52.870;13.660;2023-07-09T09:11:43;101461.59;;;31.86
53412;BMP280;39307;52.870;13.660;2023-07-09T09:16:46;101467.13;;;32.16
53412;BMP280;39307;52.870;13.660;2023-07-09T09:19:28;101462.94;;;32.24
53412;BMP280;39307;52.870;13.660;2023-07-09T09:22:12;101471.94;;;32.19
53412;BMP280;39307;52.870;13.660;2023-07-09T09:25:05;101458.31;;;32.24
53412;BMP280;39307;52.870;13.660;2023-07-09T09:27:37;101465.56;;;32.37
53412;BMP280;39307;52.870;13.660;2023-07-09T09:30:04;101456.28;;;32.73
53412;BMP280;39307;52.870;13.660;2023-07-09T09:32:57;101452.16;;;33.13
53412;BMP280;39307;52.870;13.660;2023-07-09T09:35:36;101452.63;;;33.45
53412;BMP280;39307;52.870;13.660;2023-07-09T09:38:15;101458.16;;;33.79
53412;BMP280;39307;52.870;13.660;2023-07-09T09:40:43;101445.72;;;34.03
53412;BMP280;39307;52.870;13.660;2023-07-09T09:43:20;101457.38;;;34.03
53412;BMP280;39307;52.870;13.660;2023-07-09T09:45:48;101451.16;;;34.03
53412;BMP280;39307;52.870;13.660;2023-07-09T09:48:43;101445.88;;;34.23
53412;BMP280;39307;52.870;13.660;2023-07-09T09:51:12;101448.91;;;34.38
53412;BMP280;39307;52.870;13.660;2023-07-09T09:53:41;101442.97;;;34.53
53412;BMP280;39307;52.870;13.660;2023-07-09T09:56:29;101441.19;;;34.74
53412;BMP280;39307;52.870;13.660;2023-07-09T09:58:57;101441.22;;;34.57
53412;BMP280;39307;52.870;13.660;2023-07-09T10:01:34;101442.81;;;34.58
53412;BMP280;39307;52.870;13.660;2023-07-09T10:04:03;101447.94;;;34.68
53412;BMP280;39307;52.870;13.660;2023-07-09T10:06:38;101432.03;;;34.87
53412;BMP280;39307;52.870;13.660;2023-07-09T10:09:27;101439.31;;;34.66
53412;BMP280;39307;52.870;13.660;2023-07-09T10:12:04;101443.75;;;34.54
53412;BMP280;39307;52.870;13.660;2023-07-09T10:14:58;101447.00;;;34.31
53412;BMP280;39307;52.870;13.660;2023-07-09T10:17:54;101454.50;;;34.00
53412;BMP280;39307;52.870;13.660;2023-07-09T10:25:57;101448.97;;;33.58
53412;BMP280;39307;52.870;13.660;2023-07-09T10:28:33;101445.50;;;33.66
53412;BMP280;39307;52.870;13.660;2023-07-09T10:31:07;101447.72;;;33.64
53412;BMP280;39307;52.870;13.660;2023-07-09T10:36:45;101454.31;;;33.25
53412;BMP280;39307;52.870;13.660;2023-07-09T10:39:48;101435.22;;;33.46
53412;BMP280;39307;52.870;13.660;2023-07-09T10:42:30;101432.13;;;33.70
53412;BMP280;39307;52.870;13.660;2023-07-09T10:45:07;101432.91;;;33.78
53412;BMP280;39307;52.870;13.660;2023-07-09T10:47:39;101436.84;;;33.64
53412;BMP280;39307;52.870;13.660;2023-07-09T10:50:24;101434.81;;;33.70
53412;BMP280;39307;52.870;13.660;2023-07-09T10:52:54;101422.06;;;33.95
53412;BMP280;39307;52.870;13.660;2023-07-09T10:55:53;101420.78;;;34.09
53412;BMP280;39307;52.870;13.660;2023-07-09T10:58:40;101419.50;;;34.07
53412;BMP280;39307;52.870;13.660;2023-07-09T11:01:13;101413.91;;;34.12
53412;BMP280;39307;52.870;13.660;2023-07-09T11:03:57;101423.69;;;34.30
53412;BMP280;39307;52.870;13.660;2023-07-09T11:06:34;101412.88;;;34.58
53412;BMP280;39307;52.870;13.660;2023-07-09T11:09:07;101413.69;;;34.50
53412;BMP280;39307;52.870;13.660;2023-07-09T11:11:43;101403.31;;;34.52
53412;BMP280;39307;52.870;13.660;2023-07-09T11:14:40;101404.63;;;34.38
53412;BMP280;39307;52.870;13.660;2023-07-09T11:17:20;101405.09;;;34.40
53412;BMP280;39307;52.870;13.660;2023-07-09T11:19:48;101408.41;;;34.62
53412;BMP280;39307;52.870;13.660;2023-07-09T11:22:20;101399.31;;;34.41
53412;BMP280;39307;52.870;13.660;2023-07-09T11:27:31;101390.94;;;34.71
53412;BMP280;39307;52.870;13.660;2023-07-09T11:30:03;101394.38;;;34.97
53412;BMP280;39307;52.870;13.660;2023-07-09T11:32:47;101386.25;;;35.25
53412;BMP280;39307;52.870;13.660;2023-07-09T11:35:24;101380.56;;;35.39
53412;BMP280;39307;52.870;13.660;2023-07-09T11:37:52;101376.78;;;35.51
53412;BMP280;39307;52.870;13.660;2023-07-09T11:40:19;101377.44;;;35.57
53412;BMP280;39307;52.870;13.660;2023-07-09T11:42:51;101383.56;;;35.46
53412;BMP280;39307;52.870;13.660;2023-07-09T11:45:27;101374.72;;;35.48
53412;BMP280;39307;52.870;13.660;2023-07-09T11:48:23;101375.44;;;35.37
53412;BMP280;39307;52.870;13.660;2023-07-09T11:50:53;101371.72;;;35.70
53412;BMP280;39307;52.870;13.660;2023-07-09T11:56:07;101361.84;;;36.18
53412;BMP280;39307;52.870;13.660;2023-07-09T11:58:34;101370.69;;;36.15
53412;BMP280;39307;52.870;13.660;2023-07-09T12:01:01;101352.47;;;36.39
53412;BMP280;39307;52.870;13.660;2023-07-09T12:03:35;101350.84;;;36.70
53412;BMP280;39307;52.870;13.660;2023-07-09T12:06:05;101349.78;;;36.63
53412;BMP280;39307;52.870;13.660;2023-07-09T12:08:35;101348.22;;;36.62
53412;BMP280;39307;52.870;13.660;2023-07-09T12:11:01;101349.03;;;36.86
53412;BMP280;39307;52.870;13.660;2023-07-09T12:13:28;101345.28;;;37.02
53412;BMP280;39307;52.870;13.660;2023-07-09T12:15:54;101340.97;;;37.13
53412;BMP280;39307;52.870;13.660;2023-07-09T12:18:20;101334.13;;;37.42
53412;BMP280;39307;52.870;13.660;2023-07-09T12:20:52;101320.44;;;37.54
53412;BMP280;39307;52.870;13.660;2023-07-09T12:23:29;101320.69;;;37.76
53412;BMP280;39307;52.870;13.660;2023-07-09T12:26:00;101322.00;;;37.94
53412;BMP280;39307;52.870;13.660;2023-07-09T12:28:29;101314.91;;;37.66
53412;BMP280;39307;52.870;13.660;2023-07-09T12:30:55;101320.16;;;37.59
53412;BMP280;39307;52.870;13.660;2023-07-09T12:33:25;101320.13;;;37.71
53412;BMP280;39307;52.870;13.660;2023-07-09T12:36:00;101309.66;;;37.85
53412;BMP280;39307;52.870;13.660;2023-07-09T12:38:39;101305.66;;;37.82
53412;BMP280;39307;52.870;13.660;2023-07-09T12:41:34;101301.13;;;38.01
53412;BMP280;39307;52.870;13.660;2023-07-09T12:44:02;101309.91;;;38.37
53412;BMP280;39307;52.870;13.660;2023-07-09T12:46:28;101304.91;;;38.54
53412;BMP280;39307;52.870;13.660;2023-07-09T12:48:55;101304.19;;;38.57
53412;BMP280;39307;52.870;13.660;2023-07-09T12:51:25;101301.78;;;38.56
53412;BMP280;39307;52.870;13.660;2023-07-09T12:54:10;101298.09;;;38.48
53412;BMP280;39307;52.870;13.660;2023-07-09T12:56:38;101294.38;;;38.41
53412;BMP280;39307;52.870;13.660;2023-07-09T12:59:19;101296.88;;;38.46
53412;BMP280;39307;52.870;13.660;2023-07-09T13:01:59;101293.59;;;38.56
53412;BMP280;39307;52.870;13.660;2023-07-09T13:04:36;101294.38;;;38.41
53412;BMP280;39307;52.870;13.660;2023-07-09T13:07:04;101296.78;;;38.27
53412;BMP280;39307;52.870;13.660;2023-07-09T13:09:31;101284.78;;;38.05
53412;BMP280;39307;52.870;13.660;2023-07-09T13:11:58;101284.63;;;37.98
53412;BMP280;39307;52.870;13.660;2023-07-09T13:14:26;101280.63;;;37.95
53412;BMP280;39307;52.870;13.660;2023-07-09T13:16:53;101288.63;;;38.15
53412;BMP280;39307;52.870;13.660;2023-07-09T13:19:28;101287.50;;;37.89
53412;BMP280;39307;52.870;13.660;2023-07-09T13:21:54;101297.38;;;37.79
53412;BMP280;39307;52.870;13.660;2023-07-09T13:24:24;101297.38;;;37.67
53412;BMP280;39307;52.870;13.660;2023-07-09T13:26:51;101290.31;;;37.66
53412;BMP280;39307;52.870;13.660;2023-07-09T13:29:19;101288.00;;;37.53
53412;BMP280;39307;52.870;13.660;2023-07-09T13:31:46;101284.09;;;37.54
53412;BMP280;39307;52.870;13.660;2023-07-09T13:34:21;101289.78;;;37.10
53412;BMP280;39307;52.870;13.660;2023-07-09T13:36:49;101293.66;;;36.73
53412;BMP280;39307;52.870;13.660;2023-07-09T13:39:16;101290.72;;;36.78
53412;BMP280;39307;52.870;13.660;2023-07-09T13:41:44;101288.78;;;36.79
53412;BMP280;39307;52.870;13.660;2023-07-09T13:44:20;101288.31;;;36.65
53412;BMP280;39307;52.870;13.660;2023-07-09T13:46:46;101282.84;;;36.65
53412;BMP280;39307;52.870;13.660;2023-07-09T13:49:15;101277.63;;;36.72
53412;BMP280;39307;52.870;13.660;2023-07-09T13:51:42;101283.75;;;36.69
53412;BMP280;39307;52.870;13.660;2023-07-09T13:54:24;101274.44;;;36.70
53412;BMP280;39307;52.870;13.660;2023-07-09T13:56:51;101276.81;;;36.83
53412;BMP280;39307;52.870;13.660;2023-07-09T13:59:20;101272.28;;;36.75
53412;BMP280;39307;52.870;13.660;2023-07-09T14:01:47;101275.72;;;36.61
53412;BMP280;39307;52.870;13.660;2023-07-09T14:04:15;101279.75;;;36.43
53412;BMP280;39307;52.870;13.660;2023-07-09T14:06:43;101276.13;;;36.39
53412;BMP280;39307;52.870;13.660;2023-07-09T14:09:10;101280.41;;;36.28
53412;BMP280;39307;52.870;13.660;2023-07-09T14:11:45;101277.66;;;36.16
53412;BMP280;39307;52.870;13.660;2023-07-09T14:14:25;101281.75;;;36.10
53412;BMP280;39307;52.870;13.660;2023-07-09T14:16:53;101280.16;;;36.09
53412;BMP280;39307;52.870;13.660;2023-07-09T14:19:22;101274.59;;;36.06
53412;BMP280;39307;52.870;13.660;2023-07-09T14:21:49;101269.81;;;35.83
53412;BMP280;39307;52.870;13.660;2023-07-09T14:26:46;101275.44;;;35.66